There is a communication problem. Go directly to the Meteoalarm site : www.meteoalarm.eu and check the Weather-warnings there .


My Other Sites:

Weather34 Aurora MKIIsikeawx.alinos.eu

SYKIA METEOTEMPLATEsykiameteo.alinos.eu

alinos.eualinos.eu



Nearby METAR Reports

   
LGEL - Elefsis (hel-Afb, Greece
Distance from station: E 77 km
Updated: 29-01-2022 11:20
Mostly Cloudy  
Mostly Cloudy  
   Wind: NNW 22.2 km/h
Wind: NNW 22.2 km/h
Temperature: 8°C
Wind Chill: 4°C
Dew Point: 2°C
Humidity: 66%
Barometer: 1017 hPa
Clouds: Mostly Cloudy
Visibility: More than 10 km
Cloud details: Partly Cloudy 2500 ft,
Mostly Cloudy 7000 ft
LGEL 290920Z 33012KT 9999 SCT025 BKN070 08/02 Q1017
LGRX - Araxos (civ/Afb), Greece
Distance from station: W 110 km
Updated: 29-01-2022 11:20
Light Rain, Overcast  
Light Rain, Overcast  
   Wind: NE 33.3 km/h<br />Gust to 33.3 km/h
Wind: NE 33.3 km/h
Gust to 33.3 km/h
Temperature: 8°C
Wind Chill: 4°C
Dew Point: 6°C
Humidity: 87%
Barometer: 1016 hPa
Clouds: Overcast
Visibility: 6 km
Cloud details: Few Clouds 1800 ft,
Mostly Cloudy 2500 ft,
Overcast 7000 ft
LGRX 290920Z 05018G28KT 6000 -RA FEW018TCU BKN025 OVC070 08/06 Q1016
LGAV - Athens/Elef-Ven, Greece
Distance from station: E 113 km
Updated: 29-01-2022 11:20
Partly Cloudy  
Partly Cloudy  
   Wind: NW 5.6 km/h
Wind: NW 5.6 km/h
Temperature: 9°C
Wind Chill: 8°C
Dew Point: 2°C
Humidity: 62%
Barometer: 1019 hPa
Clouds: Partly Cloudy
Visibility: More than 10 km
Cloud details: Few Clouds 2000 ft,
Partly Cloudy 3500 ft
LGAV 290920Z 32003KT 9999 FEW020 SCT035 09/02 Q1019 NOSIG
LGAD - Andravida (civ/A, Greece
Distance from station: W 124 km
Updated: 29-01-2022 11:20
Light Rain, Mostly Cloudy  
Light Rain, Mostly Cloudy  
   Wind: NNE 11.1 km/h
Wind: NNE 11.1 km/h
Temperature: 8°C
Wind Chill: 6°C
Dew Point: 8°C
Humidity: 100%
Barometer: 1016 hPa
Clouds: Mostly Cloudy
Visibility: 8 km
Cloud details: Few Clouds 1800 ft,
Partly Cloudy 2500 ft,
Mostly Cloudy 8000 ft
LGAD 290920Z 02006KT 8000 -RA FEW018TCU SCT025 BKN080 08/08 Q1016
LGKL - Kalamata (hel-Af, Greece
Distance from station: SSW 124 km
Updated: 29-01-2022 11:20
Light Rain  
Light Rain  
   Wind: varies 3.7 km/h
Wind: varies 3.7 km/h
Temperature: 9°C
Dew Point: 7°C
Humidity: 87%
Barometer: 1015 hPa
LGKL 290920Z AUTO VRB02KT //// -RA ////// 09/07 Q1015 RE//
LGBL - Nea Anchialos, Greece
Distance from station: N 129 km
Updated: 29-01-2022 11:20
Overcast  
Overcast  
   Wind: West 16.7 km/h
Wind: West 16.7 km/h
Temperature: 6°C
Wind Chill: 3°C
Dew Point: 1°C
Humidity: 71%
Barometer: 1022 hPa
Clouds: Overcast
Visibility: More than 10 km
Cloud details: Few Clouds 1200 ft,
Partly Cloudy 3000 ft,
Overcast 8000 ft
LGBL 290920Z 27009KT 9999 FEW012 SCT030 OVC080 06/01 Q1022

Script developed by  Saratoga-weather.org Adapted for the template by  Weerstation Leuven

You find our weather info also at:

European Weather Network

Weather Underground

AWEKAS

Citizen Weather Observer Program (CWOP)

UK Metoffice

Equipment we use:

Weather-station
Davis Wireless Vantage Pro2

Davis Wireless Vantage Pro2